createdAt,value
2022-09-14T00:01:32.249Z,100311.47
2022-09-14T00:04:02.253Z,100310.53
2022-09-14T00:06:31.443Z,100302.66
2022-09-14T00:09:02.217Z,100305.25
2022-09-14T00:11:33.712Z,100300.22
2022-09-14T00:14:03.108Z,100297.53
2022-09-14T00:16:32.934Z,100298.72
2022-09-14T00:19:05.625Z,100293.44
2022-09-14T00:21:34.071Z,100298.91
2022-09-14T00:24:03.863Z,100287.50
2022-09-14T00:26:31.931Z,100278.97
2022-09-14T00:29:04.333Z,100293.94
2022-09-14T00:31:37.256Z,100299.47
2022-09-14T00:34:07.266Z,100284.41
2022-09-14T00:36:39.785Z,100281.03
2022-09-14T00:39:09.339Z,100278.50
2022-09-14T00:41:39.048Z,100268.56
2022-09-14T00:44:09.634Z,100267.91
2022-09-14T00:46:39.183Z,100259.97
2022-09-14T00:49:14.081Z,100259.19
2022-09-14T00:51:46.799Z,100255.69
2022-09-14T00:54:16.489Z,100246.81
2022-09-14T00:56:44.469Z,100245.06
2022-09-14T00:59:17.302Z,100246.09
2022-09-14T01:01:45.923Z,100244.50
2022-09-14T01:04:13.948Z,100234.56
2022-09-14T01:06:48.988Z,100241.84
2022-09-14T01:09:29.189Z,100238.16
2022-09-14T01:12:14.325Z,100240.75
2022-09-14T01:14:52.095Z,100239.00
2022-09-14T01:17:28.386Z,100227.53
2022-09-14T01:20:10.952Z,100238.06
2022-09-14T01:22:52.785Z,100237.19
2022-09-14T01:25:54.132Z,100239.84
2022-09-14T01:28:27.272Z,100239.19
2022-09-14T01:30:59.740Z,100244.44
2022-09-14T01:33:34.754Z,100248.09
2022-09-14T01:36:07.507Z,100228.16
2022-09-14T01:38:40.016Z,100255.34
2022-09-14T01:41:12.977Z,100249.25
2022-09-14T01:43:45.695Z,100255.63
2022-09-14T01:46:17.961Z,100252.25
2022-09-14T01:48:51.805Z,100251.34
2022-09-14T01:51:23.966Z,100248.13
2022-09-14T01:53:56.794Z,100250.81
2022-09-14T01:56:31.961Z,100249.88
2022-09-14T01:59:06.690Z,100247.38
2022-09-14T02:01:37.804Z,100252.91
2022-09-14T02:04:10.005Z,100251.16
2022-09-14T02:06:43.645Z,100241.41
2022-09-14T02:09:14.235Z,100252.25
2022-09-14T02:11:42.226Z,100250.59
2022-09-14T02:14:11.960Z,100250.66
2022-09-14T02:16:43.355Z,100242.78
2022-09-14T02:19:11.678Z,100242.94
2022-09-14T02:21:40.048Z,100249.31
2022-09-14T02:24:08.888Z,100244.97
2022-09-14T02:26:37.840Z,100243.94
2022-09-14T02:29:06.644Z,100244.03
2022-09-14T02:31:52.782Z,100243.81
2022-09-14T02:34:29.393Z,100242.06
2022-09-14T02:37:05.353Z,100237.84
2022-09-14T02:39:41.769Z,100243.88
2022-09-14T02:42:18.844Z,100237.63
2022-09-14T02:44:59.973Z,100238.66
2022-09-14T02:47:34.440Z,100232.50
2022-09-14T02:50:09.780Z,100224.56
2022-09-14T02:52:52.582Z,100221.94
2022-09-14T02:55:22.934Z,100229.13
2022-09-14T02:58:01.552Z,100229.91
2022-09-14T03:00:30.456Z,100226.66
2022-09-14T03:02:59.911Z,100234.69
2022-09-14T03:05:27.938Z,100238.44
2022-09-14T03:07:55.874Z,100224.63
2022-09-14T03:10:23.865Z,100233.59
2022-09-14T03:12:51.813Z,100227.59
2022-09-14T03:15:19.908Z,100225.84
2022-09-14T03:17:48.075Z,100229.38
2022-09-14T03:20:19.489Z,100226.16
2022-09-14T03:22:47.812Z,100232.28
2022-09-14T03:25:16.246Z,100233.72
2022-09-14T03:27:44.173Z,100230.75
2022-09-14T03:30:13.013Z,100231.66
2022-09-14T03:32:40.956Z,100224.53
2022-09-14T03:35:09.862Z,100232.66
2022-09-14T03:37:40.145Z,100222.81
2022-09-14T03:40:09.998Z,100218.38
2022-09-14T03:42:38.044Z,100196.66
2022-09-14T03:45:07.290Z,100197.06
2022-09-14T03:47:35.295Z,100197.06
2022-09-14T03:50:03.217Z,100193.59
2022-09-14T03:52:31.150Z,100193.59
2022-09-14T03:55:00.472Z,100198.03
2022-09-14T03:57:28.722Z,100192.75
2022-09-14T03:59:56.659Z,100190.34
2022-09-14T04:02:24.670Z,100190.25
2022-09-14T04:04:52.706Z,100195.44
2022-09-14T04:07:20.622Z,100184.72
2022-09-14T04:09:48.569Z,100181.16
2022-09-14T04:12:17.873Z,100176.81
2022-09-14T04:14:45.830Z,100176.19
2022-09-14T04:17:13.821Z,100175.75
2022-09-14T04:19:42.238Z,100177.19
2022-09-14T04:22:10.183Z,100179.66
2022-09-14T04:24:38.268Z,100176.78
2022-09-14T04:27:06.261Z,100174.66
2022-09-14T04:29:35.574Z,100170.91
2022-09-14T04:32:04.504Z,100177.00
2022-09-14T04:34:32.471Z,100172.50
2022-09-14T04:37:00.378Z,100175.84
2022-09-14T04:39:28.426Z,100168.44
2022-09-14T04:41:56.383Z,100179.13
2022-09-14T04:44:24.361Z,100185.31
2022-09-14T04:46:53.761Z,100187.75
2022-09-14T04:49:21.704Z,100183.91
2022-09-14T04:51:49.748Z,100187.53
2022-09-14T04:54:19.053Z,100186.38
2022-09-14T04:56:47.021Z,100186.22
2022-09-14T04:59:15.964Z,100188.81
2022-09-14T05:01:47.540Z,100193.38
2022-09-14T05:04:17.636Z,100195.81
2022-09-14T05:06:45.792Z,100198.59
2022-09-14T05:09:15.282Z,100188.66
2022-09-14T05:11:43.722Z,100189.38
2022-09-14T05:14:13.787Z,100196.44
2022-09-14T05:16:43.770Z,100192.75
2022-09-14T05:19:15.220Z,100189.16
2022-09-14T05:21:44.718Z,100191.09
2022-09-14T05:24:14.728Z,100190.91
2022-09-14T05:26:44.230Z,100180.09
2022-09-14T05:29:14.273Z,100179.22
2022-09-14T05:31:42.324Z,100177.59
2022-09-14T05:34:10.698Z,100179.22
2022-09-14T05:36:39.305Z,100176.47
2022-09-14T05:39:09.647Z,100172.94
2022-09-14T05:41:38.083Z,100177.97
2022-09-14T05:44:06.551Z,100175.94
2022-09-14T05:46:35.048Z,100181.38
2022-09-14T05:49:03.819Z,100181.94
2022-09-14T05:51:31.816Z,100188.88
2022-09-14T05:54:00.648Z,100187.63
2022-09-14T05:56:31.680Z,100188.44
2022-09-14T05:59:00.311Z,100190.88
2022-09-14T06:01:30.440Z,100183.41
2022-09-14T06:04:02.140Z,100186.00
2022-09-14T06:06:31.284Z,100187.72
2022-09-14T06:08:59.297Z,100191.13
2022-09-14T06:11:29.474Z,100183.94
2022-09-14T06:13:59.033Z,100188.03
2022-09-14T06:16:28.241Z,100191.28
2022-09-14T06:18:58.030Z,100186.59
2022-09-14T06:21:30.112Z,100187.41
2022-09-14T06:23:58.119Z,100187.00
2022-09-14T06:26:26.785Z,100182.38
2022-09-14T06:28:55.397Z,100176.03
2022-09-14T06:31:25.362Z,100180.38
2022-09-14T06:33:53.849Z,100168.25
2022-09-14T06:36:24.114Z,100189.81
2022-09-14T06:38:52.466Z,100187.91
2022-09-14T06:41:22.718Z,100183.34
2022-09-14T06:43:52.241Z,100185.88
2022-09-14T06:46:22.143Z,100184.19
2022-09-14T06:48:53.752Z,100188.53
2022-09-14T06:51:24.155Z,100171.44
2022-09-14T06:53:53.814Z,100167.09
2022-09-14T06:56:22.253Z,100170.63
2022-09-14T06:58:52.143Z,100176.97
2022-09-14T07:01:21.367Z,100169.59
2022-09-14T07:03:52.350Z,100179.22
2022-09-14T07:06:22.238Z,100178.88
2022-09-14T07:08:51.831Z,100176.47
2022-09-14T07:11:22.084Z,100175.28
2022-09-14T07:13:50.990Z,100175.28
2022-09-14T07:16:18.966Z,100185.53
2022-09-14T07:18:46.903Z,100180.41
2022-09-14T07:21:18.443Z,100184.94
2022-09-14T07:23:48.214Z,100184.94
2022-09-14T07:26:17.898Z,100183.66
2022-09-14T07:28:49.290Z,100184.16
2022-09-14T07:31:19.358Z,100179.28
2022-09-14T07:33:47.512Z,100180.47
2022-09-14T07:36:17.018Z,100177.00
2022-09-14T07:38:53.135Z,100171.56
2022-09-14T07:41:22.000Z,100178.72
2022-09-14T07:43:51.159Z,100166.03
2022-09-14T07:46:20.536Z,100184.41
2022-09-14T07:48:50.015Z,100183.72
2022-09-14T07:51:19.422Z,100195.75
2022-09-14T07:53:47.368Z,100195.34
2022-09-14T07:56:16.748Z,100186.25
2022-09-14T07:58:44.941Z,100188.19
2022-09-14T08:01:15.272Z,100187.22
2022-09-14T08:03:44.489Z,100183.84
2022-09-14T08:06:14.316Z,100185.50
2022-09-14T08:08:45.436Z,100177.13
2022-09-14T08:11:15.616Z,100171.94
2022-09-14T08:13:46.400Z,100170.91
2022-09-14T08:16:14.967Z,100169.91
2022-09-14T08:18:43.293Z,100167.75
2022-09-14T08:21:13.283Z,100175.34
2022-09-14T08:23:43.621Z,100172.00
2022-09-14T08:26:13.259Z,100172.47
2022-09-14T08:28:42.108Z,100172.47
2022-09-14T08:31:12.245Z,100171.03
2022-09-14T08:33:41.857Z,100168.72
2022-09-14T08:36:10.964Z,100174.00
2022-09-14T08:38:39.275Z,100172.75
2022-09-14T08:41:19.326Z,100168.06
2022-09-14T08:43:48.047Z,100159.97
2022-09-14T08:46:26.070Z,100163.31
2022-09-14T08:48:54.498Z,100160.47
2022-09-14T08:51:23.262Z,100146.72
2022-09-14T08:53:53.430Z,100147.19
2022-09-14T08:56:27.213Z,100141.50
2022-09-14T08:59:10.041Z,100148.94
2022-09-14T09:01:46.023Z,100141.09
2022-09-14T09:04:40.197Z,100152.31
2022-09-14T09:07:15.052Z,100145.44
2022-09-14T09:09:46.245Z,100143.25
2022-09-14T09:12:18.316Z,100147.47
2022-09-14T09:14:52.880Z,100138.50
2022-09-14T09:17:26.165Z,100134.16
2022-09-14T09:20:04.809Z,100142.03
2022-09-14T09:22:39.161Z,100139.25
2022-09-14T09:25:16.574Z,100143.25
2022-09-14T09:27:47.607Z,100140.66
2022-09-14T09:30:16.543Z,100138.38
2022-09-14T09:32:44.978Z,100132.38
2022-09-14T09:35:18.224Z,100138.81
2022-09-14T09:37:46.214Z,100140.56
2022-09-14T09:40:19.629Z,100126.31
2022-09-14T09:43:08.789Z,100127.31
2022-09-14T09:45:52.260Z,100120.16
2022-09-14T09:48:23.197Z,100131.66
2022-09-14T09:50:55.098Z,100123.91
2022-09-14T09:53:24.226Z,100116.59
2022-09-14T09:55:52.673Z,100119.47
2022-09-14T09:58:32.939Z,100110.19
2022-09-14T10:01:02.886Z,100110.00
2022-09-14T10:03:34.712Z,100107.94
2022-09-14T10:06:09.948Z,100105.16
2022-09-14T10:08:43.617Z,100104.63
2022-09-14T10:11:33.879Z,100099.44
2022-09-14T10:14:04.762Z,100108.94
2022-09-14T10:16:37.931Z,100105.38
2022-09-14T10:19:14.962Z,100110.53
2022-09-14T10:22:05.955Z,100110.38
2022-09-14T10:24:36.696Z,100102.03
2022-09-14T10:27:37.554Z,100119.56
2022-09-14T10:30:13.654Z,100127.78
2022-09-14T10:32:44.515Z,100133.22
2022-09-14T10:35:17.509Z,100124.50
2022-09-14T10:37:58.048Z,100112.28
2022-09-14T10:40:32.761Z,100117.47
2022-09-14T10:43:10.359Z,100112.56
2022-09-14T10:45:43.689Z,100099.47
2022-09-14T10:48:27.509Z,100103.63
2022-09-14T10:51:19.784Z,100110.84
2022-09-14T10:53:56.654Z,100100.50
2022-09-14T10:56:28.383Z,100097.06
2022-09-14T10:59:19.377Z,100098.38
2022-09-14T11:02:16.496Z,100093.00
2022-09-14T11:04:58.814Z,100090.28
2022-09-14T11:07:34.897Z,100090.81
2022-09-14T11:10:14.149Z,100092.44
2022-09-14T11:12:48.562Z,100094.94
2022-09-14T11:15:26.210Z,100092.31
2022-09-14T11:18:07.455Z,100087.16
2022-09-14T11:20:44.609Z,100086.81
2022-09-14T11:23:25.214Z,100089.09
2022-09-14T11:25:56.309Z,100090.69
2022-09-14T11:28:27.960Z,100079.50
2022-09-14T11:31:02.793Z,100081.94
2022-09-14T11:33:38.104Z,100089.25
2022-09-14T11:36:10.702Z,100082.06
2022-09-14T11:38:45.353Z,100080.53
2022-09-14T11:41:22.973Z,100084.78
2022-09-14T11:43:57.649Z,100081.28
2022-09-14T11:46:32.447Z,100089.81
2022-09-14T11:49:10.678Z,100095.56
2022-09-14T11:51:44.506Z,100110.56
2022-09-14T11:54:16.753Z,100107.41
2022-09-14T11:56:49.389Z,100100.44
2022-09-14T11:59:50.374Z,100102.13
2022-09-14T12:03:02.251Z,100097.63
2022-09-14T12:05:34.664Z,100101.41
2022-09-14T12:08:19.037Z,100092.31
2022-09-14T12:11:24.523Z,100092.41
2022-09-14T12:14:14.779Z,100089.53
2022-09-14T12:17:17.616Z,100092.84
2022-09-14T12:19:58.160Z,100086.34
2022-09-14T12:22:32.942Z,100088.63
2022-09-14T12:25:16.338Z,100094.31
2022-09-14T12:27:45.824Z,100092.69
2022-09-14T12:30:45.336Z,100096.38
2022-09-14T12:33:44.195Z,100092.28
2022-09-14T12:36:13.511Z,100091.09
2022-09-14T12:39:04.034Z,100090.22
2022-09-14T12:42:00.196Z,100087.56
2022-09-14T12:44:34.914Z,100093.41
2022-09-14T12:47:40.526Z,100093.31
2022-09-14T12:50:17.645Z,100086.06
2022-09-14T12:53:07.660Z,100074.56
2022-09-14T12:55:48.306Z,100081.31
2022-09-14T12:58:28.002Z,100071.25
2022-09-14T13:01:15.664Z,100087.75
2022-09-14T13:03:50.263Z,100084.50
2022-09-14T13:06:19.942Z,100080.91
2022-09-14T13:08:50.790Z,100076.41
2022-09-14T13:11:31.851Z,100068.56
2022-09-14T13:14:01.357Z,100064.25
2022-09-14T13:16:39.806Z,100070.72
2022-09-14T13:19:21.199Z,100064.16
2022-09-14T13:21:51.628Z,100061.09
2022-09-14T13:24:27.240Z,100054.31
2022-09-14T13:26:59.203Z,100053.28
2022-09-14T13:29:28.139Z,100052.63
2022-09-14T13:32:02.972Z,100056.50
2022-09-14T13:34:35.645Z,100053.66
2022-09-14T13:37:03.897Z,100048.75
2022-09-14T13:39:35.596Z,100035.81
2022-09-14T13:42:06.591Z,100041.81
2022-09-14T13:44:37.768Z,100048.31
2022-09-14T13:47:07.055Z,100046.13
2022-09-14T13:49:37.084Z,100041.31
2022-09-14T13:52:43.626Z,100034.03
2022-09-14T13:55:24.804Z,100027.75
2022-09-14T13:58:21.057Z,100035.56
2022-09-14T14:00:53.448Z,100030.34
2022-09-14T14:03:36.921Z,100032.00
2022-09-14T14:06:20.517Z,100024.22
2022-09-14T14:08:55.607Z,100018.19
2022-09-14T14:11:32.985Z,100015.63
2022-09-14T14:14:21.408Z,100026.84
2022-09-14T14:17:24.708Z,100011.13
2022-09-14T14:19:54.369Z,100004.19
2022-09-14T14:22:27.045Z,100003.50
2022-09-14T14:25:12.779Z,99999.06
2022-09-14T14:27:44.169Z,100012.28
2022-09-14T14:30:18.092Z,100003.91
2022-09-14T14:32:50.849Z,99999.31
2022-09-14T14:35:22.625Z,99995.28
2022-09-14T14:37:51.457Z,99977.41
2022-09-14T14:40:20.324Z,99985.66
2022-09-14T14:42:50.754Z,99984.88
2022-09-14T14:45:22.027Z,99988.31
2022-09-14T14:47:51.884Z,99971.06
2022-09-14T14:50:22.442Z,99979.69
2022-09-14T14:52:51.492Z,99981.84
2022-09-14T14:55:21.139Z,99976.91
2022-09-14T14:57:49.349Z,99977.75
2022-09-14T15:00:21.184Z,99970.75
2022-09-14T15:02:49.550Z,99967.38
2022-09-14T15:05:18.390Z,99962.34
2022-09-14T15:07:47.625Z,99968.44
2022-09-14T15:10:17.317Z,99956.53
2022-09-14T15:12:45.479Z,99956.16
2022-09-14T15:15:14.642Z,99958.13
2022-09-14T15:17:44.775Z,99948.06
2022-09-14T15:20:14.402Z,99953.09
2022-09-14T15:22:42.745Z,99958.78
2022-09-14T15:25:12.193Z,99956.81
2022-09-14T15:27:41.386Z,99952.81
2022-09-14T15:30:11.832Z,99947.72
2022-09-14T15:32:40.588Z,99933.38
2022-09-14T15:35:14.388Z,99941.31
2022-09-14T15:37:42.713Z,99938.41
2022-09-14T15:40:11.820Z,99934.34
2022-09-14T15:42:40.167Z,99934.34
2022-09-14T15:45:08.801Z,99935.66
2022-09-14T15:47:36.922Z,99940.00
2022-09-14T15:50:06.244Z,99935.97
2022-09-14T15:52:37.172Z,99935.63
2022-09-14T15:55:06.071Z,99939.84
2022-09-14T15:57:34.395Z,99932.97
2022-09-14T16:00:03.260Z,99944.97
2022-09-14T16:02:31.414Z,99944.09
2022-09-14T16:04:59.346Z,99941.75
2022-09-14T16:07:29.664Z,99938.59
2022-09-14T16:09:59.296Z,99946.97
2022-09-14T16:12:27.635Z,99940.31
2022-09-14T16:14:55.652Z,99940.81
2022-09-14T16:17:23.775Z,99932.31
2022-09-14T16:19:51.726Z,99935.69
2022-09-14T16:22:19.974Z,99935.69
2022-09-14T16:24:48.981Z,99937.25
2022-09-14T16:27:18.302Z,99940.78
2022-09-14T16:29:46.327Z,99930.97
2022-09-14T16:32:14.306Z,99939.78
2022-09-14T16:34:42.796Z,99935.59
2022-09-14T16:37:10.829Z,99935.94
2022-09-14T16:39:38.766Z,99946.03
2022-09-14T16:42:07.421Z,99937.53
2022-09-14T16:44:36.783Z,99940.59
2022-09-14T16:47:04.790Z,99933.22
2022-09-14T16:49:32.745Z,99938.84
2022-09-14T16:52:00.945Z,99933.56
2022-09-14T16:54:29.828Z,99932.19
2022-09-14T16:56:59.316Z,99937.69
2022-09-14T16:59:27.586Z,99938.94
2022-09-14T17:01:56.985Z,99941.91
2022-09-14T17:04:26.197Z,99949.78
2022-09-14T17:06:55.998Z,99955.06
2022-09-14T17:09:26.356Z,99943.09
2022-09-14T17:11:55.617Z,99945.22
2022-09-14T17:14:26.364Z,99950.94
2022-09-14T17:16:55.877Z,99944.16
2022-09-14T17:19:23.864Z,99948.13
2022-09-14T17:21:52.332Z,99951.56
2022-09-14T17:24:21.713Z,99955.34
2022-09-14T17:26:51.073Z,99964.72
2022-09-14T17:29:19.408Z,99962.31
2022-09-14T17:31:47.476Z,99954.16
2022-09-14T17:34:17.770Z,99941.97
2022-09-14T17:36:46.300Z,99954.44
2022-09-14T17:39:15.563Z,99953.38
2022-09-14T17:41:44.317Z,99953.69
2022-09-14T17:44:13.749Z,99954.66
2022-09-14T17:46:51.622Z,99955.81
2022-09-14T17:49:22.884Z,99946.66
2022-09-14T17:51:51.598Z,99957.41
2022-09-14T17:54:20.463Z,99954.09
2022-09-14T17:56:48.892Z,99956.47
2022-09-14T17:59:20.188Z,99950.41
2022-09-14T18:01:49.107Z,99955.25
2022-09-14T18:04:17.869Z,99952.47
2022-09-14T18:06:49.192Z,99952.88
2022-09-14T18:09:19.267Z,99952.88
2022-09-14T18:11:48.286Z,99949.41
2022-09-14T18:14:16.652Z,99946.94
2022-09-14T18:16:45.673Z,99946.81
2022-09-14T18:19:14.649Z,99941.75
2022-09-14T18:21:42.920Z,99950.56
2022-09-14T18:24:14.799Z,99947.25
2022-09-14T18:26:43.565Z,99947.44
2022-09-14T18:29:15.292Z,99949.78
2022-09-14T18:31:44.018Z,99952.88
2022-09-14T18:34:12.114Z,99949.50
2022-09-14T18:36:40.251Z,99954.66
2022-09-14T18:39:08.191Z,99950.50
2022-09-14T18:41:37.574Z,99949.81
2022-09-14T18:44:05.809Z,99952.13
2022-09-14T18:46:33.843Z,99953.47
2022-09-14T18:49:03.222Z,99950.25
2022-09-14T18:51:32.500Z,99953.22
2022-09-14T18:54:03.214Z,99958.13
2022-09-14T18:56:33.119Z,99957.53
2022-09-14T18:59:03.997Z,99960.63
2022-09-14T19:01:32.431Z,99956.28
2022-09-14T19:04:00.541Z,99954.94
2022-09-14T19:06:28.551Z,99958.22
2022-09-14T19:08:56.742Z,99952.94
2022-09-14T19:11:27.745Z,99952.47
2022-09-14T19:14:01.314Z,99957.38
2022-09-14T19:16:31.174Z,99961.38
2022-09-14T19:18:59.799Z,99945.81
2022-09-14T19:21:29.331Z,99943.59
2022-09-14T19:24:00.395Z,99948.56
2022-09-14T19:26:31.657Z,99946.50
2022-09-14T19:29:01.596Z,99945.38
2022-09-14T19:31:31.673Z,99943.81
2022-09-14T19:34:00.684Z,99943.66
2022-09-14T19:36:29.980Z,99940.56
2022-09-14T19:39:01.589Z,99938.25
2022-09-14T19:41:30.197Z,99951.56
2022-09-14T19:43:58.594Z,99948.44
2022-09-14T19:46:27.539Z,99939.63
2022-09-14T19:48:57.019Z,99930.03
2022-09-14T19:51:26.687Z,99936.06
2022-09-14T19:53:56.793Z,99938.06
2022-09-14T19:56:26.480Z,99938.44
2022-09-14T19:58:56.798Z,99934.78
2022-09-14T20:01:26.466Z,99933.66
2022-09-14T20:03:55.159Z,99931.50
2022-09-14T20:06:26.608Z,99929.50
2022-09-14T20:08:57.506Z,99914.16
2022-09-14T20:11:27.705Z,99924.84
2022-09-14T20:13:57.048Z,99925.88
2022-09-14T20:16:27.970Z,99931.59
2022-09-14T20:18:57.469Z,99926.56
2022-09-14T20:21:28.527Z,99925.28
2022-09-14T20:24:15.236Z,99932.91
2022-09-14T20:26:44.722Z,99931.69
2022-09-14T20:29:12.836Z,99921.72
2022-09-14T20:31:41.065Z,99934.09
2022-09-14T20:34:09.251Z,99931.16
2022-09-14T20:36:38.798Z,99931.88
2022-09-14T20:39:06.908Z,99935.47
2022-09-14T20:41:36.418Z,99927.16
2022-09-14T20:44:05.072Z,99931.25
2022-09-14T20:46:35.983Z,99937.13
2022-09-14T20:49:05.418Z,99930.78
2022-09-14T20:51:33.588Z,99941.59
2022-09-14T20:54:02.909Z,99943.25
2022-09-14T20:56:33.682Z,99930.31
2022-09-14T20:59:05.431Z,99933.75
2022-09-14T21:01:35.320Z,99936.50
2022-09-14T21:04:05.540Z,99932.19
2022-09-14T21:06:36.081Z,99934.00
2022-09-14T21:09:05.989Z,99924.31
2022-09-14T21:11:34.210Z,99921.66
2022-09-14T21:14:02.202Z,99921.06
2022-09-14T21:16:31.924Z,99917.06
2022-09-14T21:19:01.851Z,99924.06
2022-09-14T21:21:30.480Z,99927.88
2022-09-14T21:23:59.650Z,99912.50
2022-09-14T21:26:33.948Z,99924.78
2022-09-14T21:29:06.284Z,99919.41
2022-09-14T21:31:36.005Z,99918.63
2022-09-14T21:34:06.000Z,99916.09
2022-09-14T21:36:36.949Z,99916.19
2022-09-14T21:39:08.996Z,99904.84
2022-09-14T21:41:39.900Z,99906.78
2022-09-14T21:44:08.377Z,99903.31
2022-09-14T21:46:36.649Z,99899.34
2022-09-14T21:49:04.744Z,99903.72
2022-09-14T21:51:34.761Z,99911.00
2022-09-14T21:54:05.166Z,99910.06
2022-09-14T21:56:34.935Z,99906.59
2022-09-14T21:59:06.196Z,99904.00
2022-09-14T22:01:34.754Z,99901.41
2022-09-14T22:04:03.460Z,99903.31
2022-09-14T22:06:32.709Z,99897.97
2022-09-14T22:09:01.598Z,99900.63
2022-09-14T22:11:31.530Z,99895.38
2022-09-14T22:14:02.636Z,99891.88
2022-09-14T22:16:34.155Z,99885.59
2022-09-14T22:19:06.724Z,99885.69
2022-09-14T22:21:37.677Z,99879.28
2022-09-14T22:24:08.693Z,99885.81
2022-09-14T22:26:39.550Z,99880.56
2022-09-14T22:29:09.203Z,99882.34
2022-09-14T22:31:40.464Z,99880.59
2022-09-14T22:34:09.463Z,99877.34
2022-09-14T22:36:37.913Z,99881.50
2022-09-14T22:39:06.989Z,99872.84
2022-09-14T22:41:35.809Z,99871.03
2022-09-14T22:44:04.821Z,99878.19
2022-09-14T22:46:33.014Z,99871.03
2022-09-14T22:49:02.327Z,99874.41
2022-09-14T22:51:30.851Z,99864.53
2022-09-14T22:53:59.388Z,99857.88
2022-09-14T22:56:29.015Z,99855.88
2022-09-14T22:58:57.030Z,99862.88
2022-09-14T23:01:27.387Z,99857.25
2022-09-14T23:03:57.053Z,99853.72
2022-09-14T23:06:31.304Z,99849.84
2022-09-14T23:09:01.030Z,99852.53
2022-09-14T23:11:29.123Z,99853.38
2022-09-14T23:13:57.742Z,99857.34
2022-09-14T23:16:27.770Z,99846.81
2022-09-14T23:18:58.250Z,99850.97
2022-09-14T23:21:26.981Z,99842.03
2022-09-14T23:23:58.228Z,99848.94
2022-09-14T23:26:27.297Z,99850.41
2022-09-14T23:28:58.613Z,99851.97
2022-09-14T23:31:28.046Z,99855.09
2022-09-14T23:33:58.530Z,99854.06
2022-09-14T23:36:27.345Z,99852.06
2022-09-14T23:38:56.982Z,99860.69
2022-09-14T23:41:26.409Z,99861.66
2022-09-14T23:43:54.894Z,99864.16
2022-09-14T23:46:23.180Z,99859.47
2022-09-14T23:48:51.509Z,99858.31
2022-09-14T23:51:19.476Z,99864.56
2022-09-14T23:53:47.461Z,99861.88
2022-09-14T23:56:16.757Z,99865.25
2022-09-14T23:58:45.449Z,99865.50
